createdAt,value
2023-01-13T00:00:57.726Z,952.62
2023-01-13T00:03:56.714Z,952.54
2023-01-13T00:06:56.829Z,952.55
2023-01-13T00:09:57.440Z,952.54
2023-01-13T00:12:57.544Z,952.75
2023-01-13T00:15:57.571Z,952.53
2023-01-13T00:18:56.605Z,952.52
2023-01-13T00:21:57.067Z,952.48
2023-01-13T00:24:56.792Z,952.42
2023-01-13T00:27:57.290Z,952.41
2023-01-13T00:30:57.905Z,952.42
2023-01-13T00:33:57.302Z,952.35
2023-01-13T00:36:57.538Z,952.39
2023-01-13T00:39:57.099Z,952.44
2023-01-13T00:42:57.355Z,952.47
2023-01-13T00:45:57.776Z,952.34
2023-01-13T00:48:57.397Z,952.29
2023-01-13T00:51:57.820Z,952.22
2023-01-13T00:54:59.780Z,952.25
2023-01-13T00:57:56.825Z,952.32
2023-01-13T01:00:57.788Z,952.22
2023-01-13T01:03:56.901Z,952.15
2023-01-13T01:06:57.116Z,952.19
2023-01-13T01:09:57.738Z,952.01
2023-01-13T01:12:57.209Z,952.05
2023-01-13T01:15:57.443Z,951.97
2023-01-13T01:18:57.397Z,952.01
2023-01-13T01:21:56.892Z,952.01
2023-01-13T01:24:56.951Z,951.9
2023-01-13T01:27:57.553Z,951.97
2023-01-13T01:30:57.602Z,951.89
2023-01-13T01:33:57.124Z,951.96
2023-01-13T01:36:57.424Z,951.83
2023-01-13T01:39:57.378Z,951.96
2023-01-13T01:42:56.951Z,951.9
2023-01-13T01:45:57.534Z,951.95
2023-01-13T01:48:57.048Z,951.83
2023-01-13T01:51:56.851Z,951.73
2023-01-13T01:54:57.746Z,951.9
2023-01-13T01:57:56.906Z,951.72
2023-01-13T02:00:57.221Z,951.79
2023-01-13T02:03:57.822Z,951.68
2023-01-13T02:06:57.707Z,951.62
2023-01-13T02:09:57.132Z,951.62
2023-01-13T02:12:56.919Z,951.58
2023-01-13T02:15:56.951Z,951.63
2023-01-13T02:18:57.638Z,951.55
2023-01-13T02:21:57.843Z,951.5
2023-01-13T02:24:57.691Z,951.5
2023-01-13T02:27:56.835Z,951.47
2023-01-13T02:30:58.069Z,951.39
2023-01-13T02:33:57.009Z,951.36
2023-01-13T02:36:57.468Z,951.45
2023-01-13T02:39:56.837Z,951.31
2023-01-13T02:42:58.080Z,951.42
2023-01-13T02:45:57.077Z,951.34
2023-01-13T02:48:57.480Z,951.25
2023-01-13T02:51:57.648Z,951.22
2023-01-13T02:54:57.917Z,951.15
2023-01-13T02:57:57.285Z,951.15
2023-01-13T03:00:58.362Z,951.2
2023-01-13T03:03:57.265Z,951.14
2023-01-13T03:06:57.220Z,951.17
2023-01-13T03:09:57.396Z,951.11
2023-01-13T03:12:57.391Z,951.05
2023-01-13T03:15:57.484Z,951.07
2023-01-13T03:18:56.956Z,950.9
2023-01-13T03:21:57.066Z,950.92
2023-01-13T03:24:57.310Z,950.86
2023-01-13T03:27:57.740Z,950.85
2023-01-13T03:30:57.773Z,950.78
2023-01-13T03:33:57.515Z,950.91
2023-01-13T03:36:57.025Z,950.92
2023-01-13T03:39:57.006Z,950.94
2023-01-13T03:42:57.314Z,950.91
2023-01-13T03:45:57.909Z,950.87
2023-01-13T03:48:56.688Z,950.96
2023-01-13T03:51:57.737Z,950.98
2023-01-13T03:54:57.532Z,950.98
2023-01-13T03:57:57.152Z,950.83
2023-01-13T04:00:57.839Z,950.81
2023-01-13T04:03:57.229Z,950.83
2023-01-13T04:06:57.018Z,950.79
2023-01-13T04:09:58.114Z,950.87
2023-01-13T04:12:57.873Z,950.8
2023-01-13T04:15:57.425Z,950.73
2023-01-13T04:18:57.845Z,950.8
2023-01-13T04:21:57.103Z,950.73
2023-01-13T04:24:56.824Z,950.76
2023-01-13T04:27:57.594Z,950.72
2023-01-13T04:30:57.893Z,950.7
2023-01-13T04:33:57.026Z,950.59
2023-01-13T04:36:57.740Z,950.72
2023-01-13T04:39:57.856Z,950.7
2023-01-13T04:42:57.677Z,950.72
2023-01-13T04:45:57.266Z,950.69
2023-01-13T04:48:56.680Z,950.69
2023-01-13T04:51:57.606Z,950.63
2023-01-13T04:54:57.256Z,950.56
2023-01-13T04:57:56.807Z,950.62
2023-01-13T05:00:56.968Z,950.58
2023-01-13T05:03:57.110Z,950.56
2023-01-13T05:06:57.177Z,950.46
2023-01-13T05:10:00.589Z,950.55
2023-01-13T05:12:57.545Z,950.62
2023-01-13T05:15:57.333Z,950.55
2023-01-13T05:18:57.362Z,950.6
2023-01-13T05:21:57.333Z,950.61
2023-01-13T05:24:57.131Z,950.65
2023-01-13T05:27:57.537Z,950.59
2023-01-13T05:30:57.691Z,950.57
2023-01-13T05:33:57.202Z,950.65
2023-01-13T05:36:57.053Z,950.66
2023-01-13T05:39:57.484Z,950.55
2023-01-13T05:42:57.048Z,950.55
2023-01-13T05:45:57.546Z,950.61
2023-01-13T05:48:57.113Z,950.57
2023-01-13T05:51:57.598Z,950.57
2023-01-13T05:54:57.727Z,950.62
2023-01-13T05:57:57.326Z,950.58
2023-01-13T06:00:57.989Z,950.73
2023-01-13T06:03:57.725Z,950.65
2023-01-13T06:06:57.129Z,950.75
2023-01-13T06:09:57.783Z,950.62
2023-01-13T06:12:57.531Z,950.62
2023-01-13T06:15:57.953Z,950.64
2023-01-13T06:18:57.959Z,950.54
2023-01-13T06:21:57.204Z,950.56
2023-01-13T06:24:57.782Z,950.47
2023-01-13T06:27:57.294Z,950.34
2023-01-13T06:30:58.306Z,950.4
2023-01-13T06:33:57.403Z,950.39
2023-01-13T06:36:57.886Z,950.41
2023-01-13T06:39:57.065Z,950.39
2023-01-13T06:42:57.236Z,950.4
2023-01-13T06:45:57.772Z,950.43
2023-01-13T06:48:57.411Z,950.47
2023-01-13T06:51:58.145Z,950.52
2023-01-13T06:54:57.735Z,950.59
2023-01-13T06:57:58.027Z,950.49
2023-01-13T07:00:58.996Z,950.48
2023-01-13T07:03:57.065Z,950.49
2023-01-13T07:06:57.722Z,950.67
2023-01-13T07:09:57.781Z,950.64
2023-01-13T07:12:57.811Z,950.62
2023-01-13T07:15:58.721Z,950.62
2023-01-13T07:18:57.363Z,950.76
2023-01-13T07:21:57.520Z,950.67
2023-01-13T07:24:57.757Z,950.68
2023-01-13T07:27:57.668Z,950.63
2023-01-13T07:30:56.645Z,950.64
2023-01-13T07:33:57.278Z,950.66
2023-01-13T07:36:58.088Z,950.59
2023-01-13T07:39:57.805Z,950.74
2023-01-13T07:42:57.224Z,950.63
2023-01-13T07:45:57.934Z,950.61
2023-01-13T07:48:57.364Z,950.62
2023-01-13T07:51:57.269Z,950.65
2023-01-13T07:54:57.775Z,950.67
2023-01-13T07:57:57.629Z,950.7
2023-01-13T08:00:57.561Z,950.62
2023-01-13T08:03:57.717Z,950.65
2023-01-13T08:06:57.115Z,950.56
2023-01-13T08:09:57.723Z,950.61
2023-01-13T08:12:57.257Z,950.54
2023-01-13T08:15:57.630Z,950.55
2023-01-13T08:18:57.768Z,950.56
2023-01-13T08:21:57.255Z,950.65
2023-01-13T08:24:57.639Z,950.81
2023-01-13T08:27:56.875Z,950.93
2023-01-13T08:30:58.130Z,950.78
2023-01-13T08:33:57.571Z,950.8
2023-01-13T08:36:56.687Z,950.8
2023-01-13T08:39:57.496Z,950.78
2023-01-13T08:42:57.813Z,950.82
2023-01-13T08:45:57.183Z,950.85
2023-01-13T08:48:57.892Z,950.75
2023-01-13T08:51:57.042Z,950.84
2023-01-13T08:54:56.989Z,950.95
2023-01-13T08:58:14.138Z,951.02
2023-01-13T09:00:58.320Z,951.0
2023-01-13T09:03:57.243Z,951.06
2023-01-13T09:06:57.672Z,951.08
2023-01-13T09:09:57.564Z,951.01
2023-01-13T09:12:57.532Z,951.12
2023-01-13T09:15:58.030Z,951.19
2023-01-13T09:18:57.760Z,951.06
2023-01-13T09:21:56.978Z,951.18
2023-01-13T09:24:57.218Z,951.23
2023-01-13T09:27:57.721Z,951.3
2023-01-13T09:30:57.810Z,951.34
2023-01-13T09:33:57.804Z,951.52
2023-01-13T09:36:57.187Z,951.72
2023-01-13T09:40:02.708Z,951.59
2023-01-13T09:42:57.054Z,951.62
2023-01-13T09:45:57.513Z,951.65
2023-01-13T09:49:03.091Z,951.6
2023-01-13T09:51:57.604Z,951.64
2023-01-13T09:54:57.420Z,951.69
2023-01-13T09:57:56.765Z,951.9
2023-01-13T10:00:57.562Z,952.22
2023-01-13T10:03:57.838Z,952.2
2023-01-13T10:06:57.207Z,952.22
2023-01-13T10:09:58.221Z,952.24
2023-01-13T10:12:57.960Z,952.17
2023-01-13T10:15:58.257Z,952.2
2023-01-13T10:18:57.526Z,951.93
2023-01-13T10:21:57.219Z,951.97
2023-01-13T10:24:57.452Z,952.01
2023-01-13T10:27:57.495Z,951.98
2023-01-13T10:30:57.250Z,952.08
2023-01-13T10:33:57.085Z,952.07
2023-01-13T10:36:57.872Z,952.15
2023-01-13T10:39:57.371Z,952.25
2023-01-13T10:42:57.901Z,952.16
2023-01-13T10:45:57.320Z,952.16
2023-01-13T10:48:57.721Z,952.29
2023-01-13T10:51:56.880Z,952.34
2023-01-13T10:54:57.308Z,952.23
2023-01-13T10:57:56.787Z,952.21
2023-01-13T11:00:57.329Z,952.19
2023-01-13T11:04:16.440Z,952.13
2023-01-13T11:06:57.381Z,952.21
2023-01-13T11:09:57.156Z,952.17
2023-01-13T11:12:57.370Z,952.24
2023-01-13T11:15:57.840Z,952.41
2023-01-13T11:18:58.093Z,952.47
2023-01-13T11:21:57.282Z,952.38
2023-01-13T11:24:57.364Z,952.47
2023-01-13T11:27:58.012Z,952.34
2023-01-13T11:30:57.323Z,952.33
2023-01-13T11:33:57.128Z,952.31
2023-01-13T11:36:57.695Z,952.34
2023-01-13T11:39:57.619Z,952.24
2023-01-13T11:42:57.473Z,952.31
2023-01-13T11:45:58.213Z,952.24
2023-01-13T11:48:57.072Z,952.35
2023-01-13T11:51:56.819Z,952.36
2023-01-13T11:54:57.306Z,952.39
2023-01-13T11:57:57.446Z,952.37
2023-01-13T12:00:57.925Z,952.32
2023-01-13T12:03:56.835Z,952.39
2023-01-13T12:06:57.647Z,952.45
2023-01-13T12:09:57.431Z,952.49
2023-01-13T12:13:00.101Z,952.45
2023-01-13T12:15:57.376Z,952.48
2023-01-13T12:18:56.888Z,952.39
2023-01-13T12:21:57.539Z,952.25
2023-01-13T12:24:56.777Z,952.41
2023-01-13T12:27:57.524Z,952.42
2023-01-13T12:30:58.157Z,952.39
2023-01-13T12:33:57.404Z,952.46
2023-01-13T12:36:56.774Z,952.47
2023-01-13T12:39:57.824Z,952.36
2023-01-13T12:42:57.037Z,952.33
2023-01-13T12:45:57.387Z,952.42
2023-01-13T12:48:57.265Z,952.5
2023-01-13T12:51:57.615Z,952.6
2023-01-13T12:54:57.565Z,952.5
2023-01-13T12:57:57.895Z,952.62
2023-01-13T13:00:58.090Z,952.58
2023-01-13T13:03:57.805Z,952.58
2023-01-13T13:06:56.992Z,952.46
2023-01-13T13:09:57.751Z,952.5
2023-01-13T13:12:57.084Z,952.66
2023-01-13T13:15:57.077Z,952.6
2023-01-13T13:18:57.758Z,952.56
2023-01-13T13:21:57.095Z,952.58
2023-01-13T13:24:57.061Z,952.57
2023-01-13T13:27:57.042Z,952.55
2023-01-13T13:30:57.709Z,952.48
2023-01-13T13:33:57.265Z,952.55
2023-01-13T13:36:57.608Z,952.51
2023-01-13T13:39:56.647Z,952.49
2023-01-13T13:42:57.650Z,952.54
2023-01-13T13:45:57.203Z,952.67
2023-01-13T13:48:57.527Z,952.79
2023-01-13T13:51:57.018Z,952.77
2023-01-13T13:54:57.818Z,952.96
2023-01-13T13:57:57.882Z,952.97
2023-01-13T14:00:57.395Z,952.99
2023-01-13T14:03:57.144Z,953.16
2023-01-13T14:06:57.686Z,953.08
2023-01-13T14:09:58.006Z,953.25
2023-01-13T14:12:57.284Z,953.34
2023-01-13T14:15:58.137Z,953.26
2023-01-13T14:18:56.931Z,953.15
2023-01-13T14:21:57.119Z,953.21
2023-01-13T14:24:57.362Z,953.15
2023-01-13T14:27:57.435Z,953.21
2023-01-13T14:30:57.390Z,953.17
2023-01-13T14:33:57.365Z,953.17
2023-01-13T14:36:57.811Z,953.35
2023-01-13T14:39:57.939Z,953.43
2023-01-13T14:42:57.025Z,953.51
2023-01-13T14:45:57.370Z,953.61
2023-01-13T14:48:57.593Z,953.67
2023-01-13T14:51:57.347Z,953.7
2023-01-13T14:54:57.577Z,953.75
2023-01-13T14:57:56.905Z,953.8
2023-01-13T15:00:58.174Z,953.8
2023-01-13T15:03:57.419Z,953.77
2023-01-13T15:06:57.119Z,953.9
2023-01-13T15:09:58.074Z,954.13
2023-01-13T15:12:56.984Z,954.47
2023-01-13T15:15:57.459Z,954.52
2023-01-13T15:18:57.308Z,954.6
2023-01-13T15:21:56.994Z,954.43
2023-01-13T15:24:57.538Z,954.6
2023-01-13T15:27:57.712Z,954.45
2023-01-13T15:30:57.900Z,954.51
2023-01-13T15:33:57.305Z,954.41
2023-01-13T15:36:56.895Z,954.44
2023-01-13T15:39:57.487Z,954.44
2023-01-13T15:42:57.594Z,954.54
2023-01-13T15:45:57.466Z,954.63
2023-01-13T15:48:56.650Z,954.7
2023-01-13T15:51:57.276Z,954.77
2023-01-13T15:54:58.158Z,954.73
2023-01-13T15:57:56.908Z,954.8
2023-01-13T16:00:57.737Z,954.79
2023-01-13T16:03:57.779Z,954.88
2023-01-13T16:06:56.791Z,954.98
2023-01-13T16:09:56.882Z,955.05
2023-01-13T16:12:57.164Z,955.13
2023-01-13T16:15:57.476Z,955.21
2023-01-13T16:18:57.584Z,955.31
2023-01-13T16:21:57.226Z,955.27
2023-01-13T16:24:57.319Z,955.34
2023-01-13T16:27:57.295Z,955.42
2023-01-13T16:30:57.436Z,955.44
2023-01-13T16:33:57.311Z,955.45
2023-01-13T16:36:57.935Z,955.59
2023-01-13T16:39:58.106Z,955.57
2023-01-13T16:42:57.708Z,955.59
2023-01-13T16:45:57.916Z,955.6
2023-01-13T16:48:57.359Z,955.72
2023-01-13T16:51:57.417Z,955.67
2023-01-13T16:54:57.350Z,955.67
2023-01-13T16:57:57.742Z,955.87
2023-01-13T17:00:58.539Z,955.6
2023-01-13T17:03:57.089Z,955.59
2023-01-13T17:06:57.329Z,955.76
2023-01-13T17:09:57.629Z,955.74
2023-01-13T17:13:04.573Z,955.79
2023-01-13T17:15:58.203Z,955.83
2023-01-13T17:18:57.429Z,955.9
2023-01-13T17:21:57.397Z,955.85
2023-01-13T17:24:57.668Z,955.97
2023-01-13T17:27:57.509Z,955.92
2023-01-13T17:30:57.313Z,956.0
2023-01-13T17:33:57.138Z,956.02
2023-01-13T17:37:03.164Z,956.06
2023-01-13T17:39:58.013Z,956.13
2023-01-13T17:42:56.693Z,956.12
2023-01-13T17:45:57.304Z,956.18
2023-01-13T17:48:56.997Z,956.15
2023-01-13T17:51:56.992Z,956.21
2023-01-13T17:54:57.189Z,956.22
2023-01-13T17:57:57.049Z,956.35
2023-01-13T18:00:57.688Z,956.27
2023-01-13T18:03:58.023Z,956.23
2023-01-13T18:06:57.402Z,956.23
2023-01-13T18:09:57.392Z,956.29
2023-01-13T18:12:57.227Z,956.26
2023-01-13T18:15:57.675Z,956.34
2023-01-13T18:18:57.221Z,956.3
2023-01-13T18:21:57.294Z,956.24
2023-01-13T18:24:56.896Z,956.4
2023-01-13T18:27:57.312Z,956.54
2023-01-13T18:30:57.292Z,956.53
2023-01-13T18:33:56.763Z,956.41
2023-01-13T18:36:57.393Z,956.47
2023-01-13T18:39:57.897Z,956.44
2023-01-13T18:42:56.917Z,956.48
2023-01-13T18:45:57.530Z,956.57
2023-01-13T18:48:56.988Z,956.52
2023-01-13T18:51:58.101Z,956.6
2023-01-13T18:54:57.684Z,956.62
2023-01-13T18:57:57.121Z,956.74
2023-01-13T19:01:25.282Z,956.69
2023-01-13T19:03:57.018Z,956.75
2023-01-13T19:06:57.983Z,956.66
2023-01-13T19:09:57.925Z,956.74
2023-01-13T19:12:57.497Z,956.75
2023-01-13T19:15:58.540Z,956.74
2023-01-13T19:18:57.104Z,956.79
2023-01-13T19:21:57.989Z,956.87
2023-01-13T19:24:57.666Z,956.87
2023-01-13T19:27:57.169Z,956.86
2023-01-13T19:30:57.409Z,956.94
2023-01-13T19:33:57.747Z,957.07
2023-01-13T19:36:57.433Z,957.0
2023-01-13T19:39:57.479Z,957.15
2023-01-13T19:42:57.904Z,957.16
2023-01-13T19:45:57.607Z,957.22
2023-01-13T19:48:57.392Z,957.35
2023-01-13T19:51:58.054Z,957.33
2023-01-13T19:54:57.728Z,957.42
2023-01-13T19:57:57.676Z,957.4
2023-01-13T20:00:57.700Z,957.61
2023-01-13T20:03:57.802Z,957.41
2023-01-13T20:06:57.666Z,957.61
2023-01-13T20:09:57.949Z,957.58
2023-01-13T20:12:57.830Z,957.71
2023-01-13T20:16:03.989Z,957.71
2023-01-13T20:19:03.180Z,957.64
2023-01-13T20:22:00.013Z,957.54
2023-01-13T20:25:05.010Z,957.6
2023-01-13T20:28:03.008Z,957.55
2023-01-13T20:31:04.998Z,957.55
2023-01-13T20:33:56.976Z,957.58
2023-01-13T20:36:57.856Z,957.75
2023-01-13T20:39:57.176Z,957.64
2023-01-13T20:42:58.111Z,957.59
2023-01-13T20:45:57.427Z,957.74
2023-01-13T20:48:57.531Z,957.86
2023-01-13T20:51:57.512Z,957.73
2023-01-13T20:54:57.455Z,957.96
2023-01-13T20:57:57.562Z,957.95
2023-01-13T21:00:57.384Z,957.88
2023-01-13T21:03:57.291Z,957.88
2023-01-13T21:06:57.229Z,957.99
2023-01-13T21:09:57.201Z,957.92
2023-01-13T21:12:57.462Z,957.92
2023-01-13T21:15:57.353Z,957.99
2023-01-13T21:18:57.574Z,957.93
2023-01-13T21:21:57.905Z,958.01
2023-01-13T21:24:57.901Z,958.05
2023-01-13T21:27:56.973Z,958.07
2023-01-13T21:30:57.097Z,957.94
2023-01-13T21:33:57.552Z,958.07
2023-01-13T21:36:56.946Z,958.15
2023-01-13T21:39:57.774Z,958.11
2023-01-13T21:42:57.122Z,958.19
2023-01-13T21:45:57.934Z,958.15
2023-01-13T21:48:58.029Z,958.2
2023-01-13T21:51:57.732Z,958.18
2023-01-13T21:54:57.718Z,958.26
2023-01-13T21:57:57.320Z,958.21
2023-01-13T22:00:58.580Z,958.21
2023-01-13T22:03:57.271Z,958.42
2023-01-13T22:06:56.880Z,958.29
2023-01-13T22:09:58.058Z,958.44
2023-01-13T22:12:57.780Z,958.39
2023-01-13T22:15:58.125Z,958.53
2023-01-13T22:18:57.876Z,958.49
2023-01-13T22:21:57.490Z,958.43
2023-01-13T22:24:57.965Z,958.58
2023-01-13T22:27:57.231Z,958.58
2023-01-13T22:30:58.150Z,958.64
2023-01-13T22:33:57.342Z,958.77
2023-01-13T22:36:57.193Z,958.83
2023-01-13T22:39:57.549Z,958.74
2023-01-13T22:42:57.313Z,958.99
2023-01-13T22:45:57.991Z,958.86
2023-01-13T22:48:59.005Z,958.87
2023-01-13T22:51:57.612Z,958.83
2023-01-13T22:54:57.814Z,958.89
2023-01-13T22:57:57.832Z,958.92
2023-01-13T23:00:58.083Z,958.96
2023-01-13T23:03:56.872Z,958.93
2023-01-13T23:06:57.581Z,959.03
2023-01-13T23:09:56.985Z,959.05
2023-01-13T23:12:56.945Z,959.02
2023-01-13T23:15:57.144Z,958.99
2023-01-13T23:18:57.639Z,959.07
2023-01-13T23:21:56.592Z,959.06
2023-01-13T23:24:57.776Z,959.12
2023-01-13T23:27:57.622Z,959.17
2023-01-13T23:30:57.153Z,959.11
2023-01-13T23:33:57.216Z,959.21
2023-01-13T23:36:56.996Z,959.14
2023-01-13T23:39:57.000Z,959.22
2023-01-13T23:42:57.226Z,959.3
2023-01-13T23:45:57.437Z,959.29
2023-01-13T23:48:57.291Z,959.26
2023-01-13T23:51:57.655Z,959.26
2023-01-13T23:54:57.357Z,959.29
2023-01-13T23:57:57.907Z,959.19
